Crystal Symphony — C6MY5 — position and weather

sailwx.info

Track history (hours):
 
Tides and Currents Weather Stations Pressure Air Temp Water Temp Dewpoint Dewpoint Depression Visibility Wind Speed Wind Dir Waves Ship Positions

Crystal Symphony

Operator: Crystal Cruises

Last reported at 2016-May-05 02:33 UTC. Time now 2016-May-05 02:56 UTC.
Position N 37°31' E 025°19'.

Length 238 m; draft 8 m.

Type: Ship. MMSI: 309168000.

Date/timePositionNaut miles runAvg speedWind from/ knotsBaromVisibWave heightAir tempDewpointWater temp
2016-May-05 02:33N 37°31' E 025°19'1212.0
2016-May-05 01:34N 37°31' E 025°34'1716.6
2016-May-05 00:33N 37°23' E 025°53'5 0.1
2016-May-03 00:33N 37°19' E 025°52'1212.2
2016-May-02 23:33N 37°18' E 025°36'1212.2
2016-May-02 22:34N 37°17' E 025°21'1312.9
2016-May-02 21:33N 37°17' E 025°05'1312.6
2016-May-02 20:33N 37°17' E 024°49'3113.1
2016-May-02 18:13N 37°18' E 024°11'1217.6
2016-May-02 17:32N 37°22' E 023°57'1515.6
2016-May-02 16:33N 37°34' E 023°44'1716.6
2016-May-02 15:33N 37°49' E 023°36'7 7.2
2016-May-02 14:32N 37°56' E 023°38'0 0.0
2016-May-02 13:32N 37°56' E 023°38'0 0.0
2016-May-02 12:31N 37°56' E 023°38'0 0.0
2016-May-02 11:31N 37°56' E 023°38'0 0.0
2016-May-02 05:32N 37°56' E 023°38'0 0.0
2016-May-02 04:32N 37°56' E 023°38'0 0.0
2016-May-02 03:32N 37°56' E 023°38'0 0.0
2016-May-02 02:31N 37°56' E 023°38'0 0.0
2016-May-02 01:31N 37°56' E 023°38'0 0.0
2016-May-02 00:33N 37°56' E 023°38'0 0.0
2016-May-01 23:33N 37°56' E 023°38'0 0.0
2016-May-01 22:32N 37°56' E 023°38'0 0.0
2016-May-01 21:32N 37°56' E 023°38'0 0.0
2016-May-01 20:31N 37°56' E 023°38'0 0.0
2016-May-01 19:31N 37°56' E 023°38'0 0.0
2016-May-01 18:31N 37°56' E 023°38'0 0.0
2016-May-01 17:33N 37°56' E 023°38'0 0.0
2016-May-01 16:33N 37°56' E 023°38'0 0.0
2016-May-01 15:32N 37°56' E 023°38'0 0.0
2016-May-01 14:32N 37°56' E 023°38'0 0.0
2016-May-01 13:31N 37°56' E 023°38'0 0.0
2016-May-01 12:31N 37°56' E 023°38'0 0.0
2016-May-01 11:31N 37°56' E 023°38'0 0.0
2016-May-01 10:33N 37°56' E 023°38'0 0.0
2016-May-01 09:33N 37°56' E 023°38'0 0.0
2016-May-01 08:32N 37°56' E 023°38'0 0.0
2016-May-01 07:32N 37°56' E 023°38'0 0.0
2016-May-01 06:31N 37°56' E 023°38'0 0.0
2016-May-01 05:31N 37°56' E 023°38'0 0.0
2016-May-01 04:31N 37°56' E 023°38'0 0.0
2016-May-01 03:33N 37°56' E 023°38'0 0.0
2016-May-01 02:33N 37°56' E 023°38'0 0.0
2016-May-01 01:32N 37°56' E 023°38'0 0.0
2016-May-01 00:32N 37°56' E 023°38'0 0.0
2016-Apr-30 23:28N 37°56' E 023°38'0 0.0
2016-Apr-30 22:31N 37°56' E 023°38'0 0.0
2016-Apr-30 21:31N 37°56' E 023°38'0 0.0
2016-Apr-30 20:33N 37°56' E 023°38'0 0.0
2016-Apr-30 19:33N 37°56' E 023°38'0 0.0
2016-Apr-30 18:32N 37°56' E 023°38'2 2.0
2016-Apr-30 17:34N 37°55' E 023°37'1010.3
2016-Apr-30 16:33N 37°45' E 023°43'1413.6
2016-Apr-30 15:33N 37°32' E 023°42'1515.0
2016-Apr-30 14:33N 37°22' E 023°28'1 0.8
2016-Apr-30 13:33N 37°21' E 023°28'0 0.0
2016-Apr-30 12:32N 37°21' E 023°28'0 0.0
2016-Apr-30 11:33N 37°21' E 023°28'0 0.0
2016-Apr-30 10:33N 37°21' E 023°28'0 0.1
2016-Apr-30 09:30N 37°21' E 023°28'0 0.0
2016-Apr-30 08:33N 37°21' E 023°28'0 0.0
2016-Apr-30 07:33N 37°21' E 023°28'0 0.1
2016-Apr-30 06:33N 37°21' E 023°28'10 9.9
2016-Apr-30 05:31N 37°15' E 023°18'9 9.2
2016-Apr-30 04:34N 37°08' E 023°10'1010.3
2016-Apr-30 03:32N 37°15' E 022°60'2 0.1
2016-Apr-29 02:33N 37°13' E 023°01'1110.8
2016-Apr-29 01:33N 37°04' E 023°08'1110.9
2016-Apr-29 00:32N 36°55' E 023°16'1110.8
2016-Apr-28 23:29N 36°45' E 023°24'1010.8
2016-Apr-28 22:33N 36°37' E 023°32'1111.1
2016-Apr-28 21:33N 36°29' E 023°40'1211.9
2016-Apr-28 20:33N 36°17' E 023°43'1110.7
2016-Apr-28 19:33N 36°08' E 023°50'1111.0
2016-Apr-28 18:33N 35°59' E 023°57'1210.9
2016-Apr-28 17:25N 35°48' E 024°05'1010.9
2016-Apr-28 16:33N 35°40' E 024°11'1010.2
2016-Apr-28 15:33N 35°30' E 024°13'  
2016-Apr-25 23:05N 37°00' E 024°51'4 7.7
2016-Apr-25 22:33N 37°04' E 024°53'8 7.7
2016-Apr-25 21:33N 37°11' E 024°57'8 8.1
2016-Apr-25 20:33N 37°18' E 025°03'1312.8
2016-Apr-25 19:33N 37°28' E 025°13'5 5.1
2016-Apr-25 18:33N 37°28' E 025°19'0 0.0
2016-Apr-25 17:33N 37°28' E 025°19'0 0.0
2016-Apr-25 16:32N 37°28' E 025°19'0 0.0
2016-Apr-25 15:29N 37°28' E 025°19'0 0.0
2016-Apr-25 14:28N 37°28' E 025°19'0 0.0
2016-Apr-25 13:31N 37°28' E 025°19'0 0.0
2016-Apr-25 12:31N 37°28' E 025°19'0 0.0
2016-Apr-25 11:33N 37°28' E 025°19'0 0.0
2016-Apr-25 10:33N 37°28' E 025°19'0 0.0
2016-Apr-25 09:32N 37°28' E 025°19'0 0.0
2016-Apr-25 08:32N 37°28' E 025°19'0 0.0
2016-Apr-25 07:31N 37°28' E 025°19'0 0.0
2016-Apr-25 06:31N 37°28' E 025°19'0 0.0
2016-Apr-25 05:31N 37°28' E 025°19'0 0.0
2016-Apr-25 04:33N 37°28' E 025°19'0 0.0
2016-Apr-25 03:33N 37°28' E 025°19'6 5.6
2016-Apr-25 02:33N 37°29' E 025°12'  
Track history (hours):
 
Tides and Currents Weather Stations Pressure Air Temp Water Temp Dewpoint Dewpoint Depression Visibility Wind Speed Wind Dir Waves Ship Positions

Crystal Symphony

Operator: Crystal Cruises

Last reported at 2016-May-05 02:33 UTC. Time now 2016-May-05 02:56 UTC.
Position N 37°31' E 025°19'.

Length 238 m; draft 8 m.

Type: Ship. MMSI: 309168000.

Date/timePositionNaut miles runAvg speedWind from/ knotsBaromVisibWave heightAir tempDewpointWater temp
2016-May-05 02:33N 37°31' E 025°19'1212.0
2016-May-05 01:34N 37°31' E 025°34'1716.6
2016-May-05 00:33N 37°23' E 025°53'5 0.1
2016-May-03 00:33N 37°19' E 025°52'1212.2
2016-May-02 23:33N 37°18' E 025°36'1212.2
2016-May-02 22:34N 37°17' E 025°21'1312.9
2016-May-02 21:33N 37°17' E 025°05'1312.6
2016-May-02 20:33N 37°17' E 024°49'3113.1
2016-May-02 18:13N 37°18' E 024°11'1217.6
2016-May-02 17:32N 37°22' E 023°57'1515.6
2016-May-02 16:33N 37°34' E 023°44'1716.6
2016-May-02 15:33N 37°49' E 023°36'7 7.2
2016-May-02 14:32N 37°56' E 023°38'0 0.0
2016-May-02 13:32N 37°56' E 023°38'0 0.0
2016-May-02 12:31N 37°56' E 023°38'0 0.0
2016-May-02 11:31N 37°56' E 023°38'0 0.0
2016-May-02 05:32N 37°56' E 023°38'0 0.0
2016-May-02 04:32N 37°56' E 023°38'0 0.0
2016-May-02 03:32N 37°56' E 023°38'0 0.0
2016-May-02 02:31N 37°56' E 023°38'0 0.0
2016-May-02 01:31N 37°56' E 023°38'0 0.0
2016-May-02 00:33N 37°56' E 023°38'0 0.0
2016-May-01 23:33N 37°56' E 023°38'0 0.0
2016-May-01 22:32N 37°56' E 023°38'0 0.0
2016-May-01 21:32N 37°56' E 023°38'0 0.0
2016-May-01 20:31N 37°56' E 023°38'0 0.0
2016-May-01 19:31N 37°56' E 023°38'0 0.0
2016-May-01 18:31N 37°56' E 023°38'0 0.0
2016-May-01 17:33N 37°56' E 023°38'0 0.0
2016-May-01 16:33N 37°56' E 023°38'0 0.0
2016-May-01 15:32N 37°56' E 023°38'0 0.0
2016-May-01 14:32N 37°56' E 023°38'0 0.0
2016-May-01 13:31N 37°56' E 023°38'0 0.0
2016-May-01 12:31N 37°56' E 023°38'0 0.0
2016-May-01 11:31N 37°56' E 023°38'0 0.0
2016-May-01 10:33N 37°56' E 023°38'0 0.0
2016-May-01 09:33N 37°56' E 023°38'0 0.0
2016-May-01 08:32N 37°56' E 023°38'0 0.0
2016-May-01 07:32N 37°56' E 023°38'0 0.0
2016-May-01 06:31N 37°56' E 023°38'0 0.0
2016-May-01 05:31N 37°56' E 023°38'0 0.0
2016-May-01 04:31N 37°56' E 023°38'0 0.0
2016-May-01 03:33N 37°56' E 023°38'0 0.0
2016-May-01 02:33N 37°56' E 023°38'0 0.0
2016-May-01 01:32N 37°56' E 023°38'0 0.0
2016-May-01 00:32N 37°56' E 023°38'0 0.0
2016-Apr-30 23:28N 37°56' E 023°38'0 0.0
2016-Apr-30 22:31N 37°56' E 023°38'0 0.0
2016-Apr-30 21:31N 37°56' E 023°38'0 0.0
2016-Apr-30 20:33N 37°56' E 023°38'0 0.0
2016-Apr-30 19:33N 37°56' E 023°38'0 0.0
2016-Apr-30 18:32N 37°56' E 023°38'2 2.0
2016-Apr-30 17:34N 37°55' E 023°37'1010.3
2016-Apr-30 16:33N 37°45' E 023°43'1413.6
2016-Apr-30 15:33N 37°32' E 023°42'1515.0
2016-Apr-30 14:33N 37°22' E 023°28'1 0.8
2016-Apr-30 13:33N 37°21' E 023°28'0 0.0
2016-Apr-30 12:32N 37°21' E 023°28'0 0.0
2016-Apr-30 11:33N 37°21' E 023°28'0 0.0
2016-Apr-30 10:33N 37°21' E 023°28'0 0.1
2016-Apr-30 09:30N 37°21' E 023°28'0 0.0
2016-Apr-30 08:33N 37°21' E 023°28'0 0.0
2016-Apr-30 07:33N 37°21' E 023°28'0 0.1
2016-Apr-30 06:33N 37°21' E 023°28'10 9.9
2016-Apr-30 05:31N 37°15' E 023°18'9 9.2
2016-Apr-30 04:34N 37°08' E 023°10'1010.3
2016-Apr-30 03:32N 37°15' E 022°60'2 0.1
2016-Apr-29 02:33N 37°13' E 023°01'1110.8
2016-Apr-29 01:33N 37°04' E 023°08'1110.9
2016-Apr-29 00:32N 36°55' E 023°16'1110.8
2016-Apr-28 23:29N 36°45' E 023°24'1010.8
2016-Apr-28 22:33N 36°37' E 023°32'1111.1
2016-Apr-28 21:33N 36°29' E 023°40'1211.9
2016-Apr-28 20:33N 36°17' E 023°43'1110.7
2016-Apr-28 19:33N 36°08' E 023°50'1111.0
2016-Apr-28 18:33N 35°59' E 023°57'1210.9
2016-Apr-28 17:25N 35°48' E 024°05'1010.9
2016-Apr-28 16:33N 35°40' E 024°11'1010.2
2016-Apr-28 15:33N 35°30' E 024°13'  
2016-Apr-25 23:05N 37°00' E 024°51'4 7.7
2016-Apr-25 22:33N 37°04' E 024°53'8 7.7
2016-Apr-25 21:33N 37°11' E 024°57'8 8.1
2016-Apr-25 20:33N 37°18' E 025°03'1312.8
2016-Apr-25 19:33N 37°28' E 025°13'5 5.1
2016-Apr-25 18:33N 37°28' E 025°19'0 0.0
2016-Apr-25 17:33N 37°28' E 025°19'0 0.0
2016-Apr-25 16:32N 37°28' E 025°19'0 0.0
2016-Apr-25 15:29N 37°28' E 025°19'0 0.0
2016-Apr-25 14:28N 37°28' E 025°19'0 0.0
2016-Apr-25 13:31N 37°28' E 025°19'0 0.0
2016-Apr-25 12:31N 37°28' E 025°19'0 0.0
2016-Apr-25 11:33N 37°28' E 025°19'0 0.0
2016-Apr-25 10:33N 37°28' E 025°19'0 0.0
2016-Apr-25 09:32N 37°28' E 025°19'0 0.0
2016-Apr-25 08:32N 37°28' E 025°19'0 0.0
2016-Apr-25 07:31N 37°28' E 025°19'0 0.0
2016-Apr-25 06:31N 37°28' E 025°19'0 0.0
2016-Apr-25 05:31N 37°28' E 025°19'0 0.0
2016-Apr-25 04:33N 37°28' E 025°19'0 0.0
2016-Apr-25 03:33N 37°28' E 025°19'6 5.6
2016-Apr-25 02:33N 37°29' E 025°12'  

Dump ship's entire track history